createdAt,value
2022-10-21T00:01:42.273Z,3.80
2022-10-21T00:04:14.034Z,3.80
2022-10-21T00:06:46.959Z,3.80
2022-10-21T00:09:18.742Z,3.80
2022-10-21T00:11:50.480Z,3.70
2022-10-21T00:14:22.227Z,3.70
2022-10-21T00:16:53.919Z,3.70
2022-10-21T00:19:25.688Z,3.70
2022-10-21T00:21:57.454Z,3.60
2022-10-21T00:24:29.223Z,3.60
2022-10-21T00:27:02.811Z,3.60
2022-10-21T00:29:34.612Z,3.60
2022-10-21T00:32:06.313Z,3.50
2022-10-21T00:34:38.129Z,3.50
2022-10-21T00:37:10.605Z,3.40
2022-10-21T00:39:42.400Z,3.40
2022-10-21T00:42:17.753Z,3.40
2022-10-21T00:45:11.787Z,3.40
2022-10-21T00:50:26.298Z,3.30
2022-10-21T00:52:58.580Z,3.40
2022-10-21T00:55:32.777Z,3.30
2022-10-21T00:58:04.581Z,3.30
2022-10-21T01:00:36.411Z,3.30
2022-10-21T01:03:08.380Z,3.20
2022-10-21T01:05:41.315Z,3.20
2022-10-21T01:08:13.071Z,3.20
2022-10-21T01:10:45.256Z,3.20
2022-10-21T01:13:16.926Z,3.10
2022-10-21T01:16:07.306Z,3.10
2022-10-21T01:18:47.486Z,3.10
2022-10-21T01:21:19.954Z,3.00
2022-10-21T01:24:10.639Z,3.00
2022-10-21T01:27:04.456Z,2.90
2022-10-21T01:29:56.190Z,2.90
2022-10-21T01:32:40.158Z,2.90
2022-10-21T01:35:17.659Z,2.80
2022-10-21T01:37:55.602Z,2.80
2022-10-21T01:40:31.538Z,2.80
2022-10-21T01:43:07.561Z,2.80
2022-10-21T01:45:43.291Z,2.80
2022-10-21T01:48:20.198Z,2.80
2022-10-21T01:50:58.250Z,2.80
2022-10-21T01:53:31.580Z,2.80
2022-10-21T01:56:04.015Z,2.80
2022-10-21T01:58:37.494Z,2.80
2022-10-21T02:01:11.347Z,2.80
2022-10-21T02:03:45.147Z,2.80
2022-10-21T02:06:18.115Z,2.70
2022-10-21T02:08:49.878Z,2.70
2022-10-21T02:11:23.857Z,2.70
2022-10-21T02:14:07.676Z,2.70
2022-10-21T02:16:42.683Z,2.70
2022-10-21T02:19:17.919Z,2.70
2022-10-21T02:21:51.950Z,2.70
2022-10-21T02:24:42.084Z,2.70
2022-10-21T02:27:13.806Z,2.70
2022-10-21T02:29:46.931Z,2.70
2022-10-21T02:32:31.021Z,2.60
2022-10-21T02:35:11.583Z,2.70
2022-10-21T02:37:46.279Z,2.60
2022-10-21T02:40:26.683Z,2.60
2022-10-21T02:42:59.766Z,2.60
2022-10-21T02:45:35.020Z,2.70
2022-10-21T02:48:09.178Z,2.70
2022-10-21T02:50:41.101Z,2.60
2022-10-21T02:53:13.326Z,2.70
2022-10-21T02:55:45.077Z,2.70
2022-10-21T02:58:16.781Z,2.70
2022-10-21T03:00:48.645Z,2.70
2022-10-21T03:03:23.227Z,2.80
2022-10-21T03:05:55.030Z,2.80
2022-10-21T03:08:31.724Z,2.80
2022-10-21T03:11:03.662Z,2.80
2022-10-21T03:13:35.413Z,2.80
2022-10-21T03:16:07.483Z,2.70
2022-10-21T03:18:39.271Z,2.70
2022-10-21T03:21:11.013Z,2.80
2022-10-21T03:23:42.802Z,2.80
2022-10-21T03:26:17.035Z,2.80
2022-10-21T03:28:48.755Z,2.80
2022-10-21T03:31:20.553Z,2.80
2022-10-21T03:33:52.238Z,2.90
2022-10-21T03:36:23.998Z,2.90
2022-10-21T03:38:55.743Z,2.90
2022-10-21T03:41:29.817Z,2.90
2022-10-21T03:44:01.585Z,2.90
2022-10-21T03:46:33.342Z,2.90
2022-10-21T03:49:15.560Z,3.00
2022-10-21T03:51:51.733Z,3.00
2022-10-21T03:54:23.479Z,2.90
2022-10-21T03:56:55.208Z,2.90
2022-10-21T03:59:26.957Z,2.90
2022-10-21T04:01:58.719Z,2.90
2022-10-21T04:04:30.490Z,2.90
2022-10-21T04:07:02.275Z,2.90
2022-10-21T04:09:34.026Z,2.90
2022-10-21T04:12:07.285Z,2.90
2022-10-21T04:14:43.898Z,3.00
2022-10-21T04:17:15.701Z,3.00
2022-10-21T04:19:47.416Z,3.00
2022-10-21T04:22:19.169Z,2.90
2022-10-21T04:24:51.031Z,3.00
2022-10-21T04:27:22.797Z,2.90
2022-10-21T04:29:54.503Z,2.90
2022-10-21T04:32:28.820Z,2.90
2022-10-21T04:35:02.888Z,2.90
2022-10-21T04:37:34.725Z,2.80
2022-10-21T04:40:09.388Z,2.80
2022-10-21T04:42:41.167Z,2.70
2022-10-21T04:45:12.877Z,2.70
2022-10-21T04:47:44.650Z,2.60
2022-10-21T04:50:16.383Z,2.60
2022-10-21T04:52:48.121Z,2.50
2022-10-21T04:55:19.852Z,2.50
2022-10-21T04:57:51.676Z,2.50
2022-10-21T05:00:23.443Z,2.50
2022-10-21T05:02:55.392Z,2.50
2022-10-21T05:05:27.272Z,2.40
2022-10-21T05:07:58.991Z,2.40
2022-10-21T05:10:30.711Z,2.40
2022-10-21T05:13:02.588Z,2.40
2022-10-21T05:15:34.474Z,2.40
2022-10-21T05:18:08.457Z,2.40
2022-10-21T05:20:40.220Z,2.40
2022-10-21T05:23:11.943Z,2.40
2022-10-21T05:25:47.491Z,2.40
2022-10-21T05:28:19.756Z,2.40
2022-10-21T05:30:52.464Z,2.50
2022-10-21T05:33:24.219Z,2.50
2022-10-21T05:36:01.848Z,2.60
2022-10-21T05:38:36.958Z,2.50
2022-10-21T05:41:10.941Z,2.60
2022-10-21T05:43:43.020Z,2.60
2022-10-21T05:46:14.795Z,2.70
2022-10-21T05:48:49.488Z,2.70
2022-10-21T05:51:26.506Z,2.70
2022-10-21T05:54:03.003Z,2.80
2022-10-21T05:56:37.143Z,2.90
2022-10-21T05:59:10.301Z,3.00
2022-10-21T06:01:42.194Z,3.10
2022-10-21T06:04:14.023Z,3.20
2022-10-21T06:06:45.790Z,3.30
2022-10-21T06:09:17.613Z,3.40
2022-10-21T06:11:51.803Z,3.50
2022-10-21T06:14:23.993Z,3.50
2022-10-21T06:16:55.764Z,3.50
2022-10-21T06:19:27.498Z,3.60
2022-10-21T06:21:59.231Z,3.60
2022-10-21T06:24:31.087Z,3.60
2022-10-21T06:27:02.877Z,3.70
2022-10-21T06:29:34.625Z,3.70
2022-10-21T06:32:06.342Z,3.70
2022-10-21T06:34:38.335Z,3.70
2022-10-21T06:37:10.034Z,3.80
2022-10-21T06:39:41.795Z,3.80
2022-10-21T06:42:14.593Z,3.80
2022-10-21T06:44:46.333Z,3.90
2022-10-21T06:47:18.043Z,4.00
2022-10-21T06:49:49.805Z,4.00
2022-10-21T06:52:21.626Z,4.10
2022-10-21T06:54:53.479Z,4.10
2022-10-21T06:57:28.176Z,4.20
2022-10-21T06:59:59.997Z,4.20
2022-10-21T07:02:31.690Z,4.20
2022-10-21T07:05:06.700Z,4.30
2022-10-21T07:07:38.662Z,4.40
2022-10-21T07:10:10.621Z,4.40
2022-10-21T07:12:42.399Z,4.40
2022-10-21T07:15:14.901Z,4.50
2022-10-21T07:17:46.598Z,4.50
2022-10-21T07:20:18.387Z,4.50
2022-10-21T07:22:50.168Z,4.50
2022-10-21T07:25:21.897Z,4.50
2022-10-21T07:27:53.631Z,4.50
2022-10-21T07:30:27.917Z,4.60
2022-10-21T07:32:59.631Z,4.60
2022-10-21T07:35:31.420Z,4.60
2022-10-21T07:38:03.229Z,4.70
2022-10-21T07:40:39.137Z,4.70
2022-10-21T07:43:11.627Z,4.80
2022-10-21T07:45:45.939Z,4.80
2022-10-21T07:48:17.651Z,4.90
2022-10-21T07:50:52.241Z,4.90
2022-10-21T07:53:26.572Z,5.00
2022-10-21T07:56:02.687Z,5.10
2022-10-21T07:58:37.560Z,5.10
2022-10-21T08:01:10.301Z,5.10
2022-10-21T08:03:42.258Z,5.10
2022-10-21T08:06:19.499Z,5.20
2022-10-21T08:08:51.589Z,5.30
2022-10-21T08:11:25.040Z,5.30
2022-10-21T08:13:56.933Z,5.30
2022-10-21T08:16:28.650Z,5.40
2022-10-21T08:19:00.939Z,5.40
2022-10-21T08:21:32.791Z,5.50
2022-10-21T08:24:05.843Z,5.60
2022-10-21T08:26:40.201Z,5.50
2022-10-21T08:29:11.878Z,5.60
2022-10-21T08:31:43.739Z,5.50
2022-10-21T08:34:15.440Z,5.60
2022-10-21T08:36:47.194Z,5.70
2022-10-21T08:39:18.948Z,5.80
2022-10-21T08:41:53.940Z,5.90
2022-10-21T08:44:31.887Z,6.10
2022-10-21T08:47:22.508Z,6.20
2022-10-21T08:49:54.189Z,6.30
2022-10-21T08:52:29.191Z,6.50
2022-10-21T08:55:02.946Z,6.60
2022-10-21T08:57:37.300Z,6.70
2022-10-21T09:00:35.390Z,6.90
2022-10-21T09:03:09.860Z,7.00
2022-10-21T09:05:50.523Z,7.10
2022-10-21T09:08:35.710Z,7.20
2022-10-21T09:11:28.643Z,7.30
2022-10-21T09:14:19.235Z,7.40
2022-10-21T09:16:50.971Z,7.40
2022-10-21T09:19:41.666Z,7.40
2022-10-21T09:22:36.277Z,7.40
2022-10-21T09:25:24.047Z,7.40
2022-10-21T09:27:57.228Z,7.40
2022-10-21T09:30:29.232Z,7.40
2022-10-21T09:33:01.526Z,7.40
2022-10-21T09:35:39.413Z,7.40
2022-10-21T09:38:14.119Z,7.40
2022-10-21T09:40:47.734Z,7.40
2022-10-21T09:43:24.425Z,7.40
2022-10-21T09:45:58.320Z,7.40
2022-10-21T09:48:50.235Z,7.30
2022-10-21T09:51:34.561Z,7.30
2022-10-21T09:54:15.004Z,7.40
2022-10-21T09:56:50.122Z,7.40
2022-10-21T09:59:23.515Z,7.50
2022-10-21T10:01:55.745Z,7.60
2022-10-21T10:04:27.466Z,7.70
2022-10-21T10:07:22.334Z,7.80
2022-10-21T10:09:54.064Z,7.90
2022-10-21T10:12:26.773Z,8.00
2022-10-21T10:15:18.454Z,8.10
2022-10-21T10:17:50.165Z,8.10
2022-10-21T10:20:24.266Z,8.10
2022-10-21T10:22:58.339Z,8.20
2022-10-21T10:25:34.867Z,8.20
2022-10-21T10:28:09.606Z,8.20
2022-10-21T10:30:41.292Z,8.30
2022-10-21T10:33:24.115Z,8.30
2022-10-21T10:35:57.657Z,8.30
2022-10-21T10:38:29.430Z,8.30
2022-10-21T10:41:06.504Z,8.20
2022-10-21T10:43:45.688Z,8.20
2022-10-21T10:46:29.669Z,8.20
2022-10-21T10:49:06.811Z,8.20
2022-10-21T10:51:40.581Z,8.30
2022-10-21T10:54:17.688Z,8.20
2022-10-21T10:56:49.676Z,8.20
2022-10-21T10:59:35.255Z,8.20
2022-10-21T11:02:13.036Z,8.10
2022-10-21T11:07:29.293Z,8.10
2022-10-21T11:10:06.750Z,8.00
2022-10-21T11:12:38.632Z,7.90
2022-10-21T11:15:16.745Z,7.90
2022-10-21T11:17:54.435Z,7.90
2022-10-21T11:20:32.744Z,8.00
2022-10-21T11:23:19.671Z,8.00
2022-10-21T11:25:54.579Z,7.90
2022-10-21T11:28:26.280Z,7.90
2022-10-21T11:31:10.379Z,7.80
2022-10-21T11:33:51.268Z,7.80
2022-10-21T11:36:44.327Z,7.80
2022-10-21T11:39:20.670Z,7.70
2022-10-21T11:42:00.313Z,7.70
2022-10-21T11:44:40.277Z,7.70
2022-10-21T11:47:22.626Z,7.70
2022-10-21T11:50:07.958Z,7.70
2022-10-21T11:52:58.625Z,7.70
2022-10-21T11:55:45.683Z,7.70
2022-10-21T11:58:23.157Z,7.60
2022-10-21T12:01:04.042Z,7.60
2022-10-21T12:03:37.047Z,7.60
2022-10-21T12:06:25.747Z,7.60
2022-10-21T12:09:03.077Z,7.60
2022-10-21T12:11:41.662Z,7.50
2022-10-21T12:14:19.115Z,7.40
2022-10-21T12:16:52.881Z,7.40
2022-10-21T12:19:25.581Z,7.40
2022-10-21T12:21:57.535Z,7.30
2022-10-21T12:24:48.247Z,7.30
2022-10-21T12:27:29.185Z,7.30
2022-10-21T12:30:30.012Z,7.30
2022-10-21T12:33:20.503Z,7.30
2022-10-21T12:35:54.891Z,7.30
2022-10-21T12:38:41.580Z,7.30
2022-10-21T12:41:25.470Z,7.30
2022-10-21T12:44:03.296Z,7.30
2022-10-21T12:46:40.130Z,7.30
2022-10-21T12:49:23.875Z,7.40
2022-10-21T12:52:12.952Z,7.40
2022-10-21T12:55:02.100Z,7.40
2022-10-21T12:57:33.861Z,7.50
2022-10-21T13:03:14.491Z,7.40
2022-10-21T13:05:46.261Z,7.40
2022-10-21T13:08:23.233Z,7.50
2022-10-21T13:11:15.200Z,7.50
2022-10-21T13:13:48.091Z,7.50
2022-10-21T13:16:19.873Z,7.50
2022-10-21T13:19:02.127Z,7.60
2022-10-21T13:21:34.003Z,7.60
2022-10-21T13:24:12.458Z,7.60
2022-10-21T13:26:51.703Z,7.60
2022-10-21T13:29:42.303Z,7.70
2022-10-21T13:32:14.011Z,7.70
2022-10-21T13:34:48.744Z,7.70
2022-10-21T13:37:29.500Z,7.70
2022-10-21T13:40:03.982Z,7.80
2022-10-21T13:42:39.654Z,7.80
2022-10-21T13:45:29.886Z,7.80
2022-10-21T13:48:06.487Z,7.80
2022-10-21T13:50:40.092Z,7.90
2022-10-21T13:53:21.360Z,7.90
2022-10-21T13:55:54.261Z,8.00
2022-10-21T13:58:26.642Z,8.00
2022-10-21T14:01:06.771Z,8.10
2022-10-21T14:03:38.868Z,8.10
2022-10-21T14:06:11.813Z,8.10
2022-10-21T14:08:45.841Z,8.10
2022-10-21T14:11:27.517Z,8.10
2022-10-21T14:14:02.116Z,8.00
2022-10-21T14:16:35.794Z,8.00
2022-10-21T14:19:21.967Z,7.90
2022-10-21T14:21:57.282Z,7.90
2022-10-21T14:24:29.027Z,7.90
2022-10-21T14:27:04.115Z,7.90
2022-10-21T14:29:38.783Z,7.90
2022-10-21T14:32:20.984Z,7.90
2022-10-21T14:35:02.206Z,7.90
2022-10-21T14:37:34.908Z,7.90
2022-10-21T14:40:11.334Z,7.90
2022-10-21T14:42:43.649Z,7.90
2022-10-21T14:45:19.452Z,7.90
2022-10-21T14:47:53.047Z,7.90
2022-10-21T14:50:24.857Z,7.90
2022-10-21T14:52:56.624Z,7.90
2022-10-21T14:55:31.068Z,7.90
2022-10-21T14:58:05.055Z,7.90
2022-10-21T15:00:41.544Z,7.80
2022-10-21T15:03:13.373Z,7.80
2022-10-21T15:05:49.076Z,7.80
2022-10-21T15:08:23.545Z,7.80
2022-10-21T15:10:58.799Z,7.80
2022-10-21T15:13:30.844Z,7.80
2022-10-21T15:16:04.115Z,7.80
2022-10-21T15:18:49.003Z,7.80
2022-10-21T15:21:29.451Z,7.70
2022-10-21T15:24:02.084Z,7.70
2022-10-21T15:26:38.019Z,7.70
2022-10-21T15:29:14.274Z,7.70
2022-10-21T15:31:46.062Z,7.70
2022-10-21T15:34:20.164Z,7.60
2022-10-21T15:36:54.310Z,7.70
2022-10-21T15:39:26.011Z,7.60
2022-10-21T15:41:59.037Z,7.60
2022-10-21T15:44:34.170Z,7.60
2022-10-21T15:47:11.212Z,7.60
2022-10-21T15:49:43.126Z,7.60
2022-10-21T15:52:14.983Z,7.60
2022-10-21T15:54:46.726Z,7.60
2022-10-21T15:57:19.860Z,7.60
2022-10-21T15:59:51.805Z,7.60
2022-10-21T16:02:23.683Z,7.60
2022-10-21T16:04:55.499Z,7.60
2022-10-21T16:07:29.789Z,7.60
2022-10-21T16:10:01.893Z,7.60
2022-10-21T16:12:33.655Z,7.60
2022-10-21T16:15:05.521Z,7.60
2022-10-21T16:17:37.311Z,7.60
2022-10-21T16:22:49.462Z,7.60
2022-10-21T16:25:21.279Z,7.60
2022-10-21T16:27:55.951Z,7.60
2022-10-21T16:30:31.329Z,7.60
2022-10-21T16:33:03.152Z,7.60
2022-10-21T16:35:34.865Z,7.60
2022-10-21T16:38:09.025Z,7.60
2022-10-21T16:40:40.777Z,7.60
2022-10-21T16:43:14.661Z,7.60
2022-10-21T16:45:48.827Z,7.60
2022-10-21T16:48:20.550Z,7.70
2022-10-21T16:50:52.342Z,7.60
2022-10-21T16:53:25.696Z,7.70
2022-10-21T16:55:58.068Z,7.70
2022-10-21T16:58:29.965Z,7.70
2022-10-21T17:01:02.601Z,7.70
2022-10-21T17:03:36.672Z,7.70
2022-10-21T17:06:09.122Z,7.60
2022-10-21T17:08:40.989Z,7.70
2022-10-21T17:11:14.396Z,7.60
2022-10-21T17:13:46.613Z,7.60
2022-10-21T17:16:21.607Z,7.60
2022-10-21T17:18:55.769Z,7.60
2022-10-21T17:21:34.068Z,7.60
2022-10-21T17:24:06.050Z,7.60
2022-10-21T17:26:38.477Z,7.60
2022-10-21T17:29:16.188Z,7.60
2022-10-21T17:31:50.294Z,7.60
2022-10-21T17:34:26.933Z,7.60
2022-10-21T17:36:58.709Z,7.60
2022-10-21T17:39:30.473Z,7.60
2022-10-21T17:42:02.486Z,7.60
2022-10-21T17:44:34.245Z,7.60
2022-10-21T17:47:05.990Z,7.60
2022-10-21T17:49:39.227Z,7.60
2022-10-21T17:52:11.019Z,7.60
2022-10-21T17:54:44.967Z,7.60
2022-10-21T17:57:16.711Z,7.70
2022-10-21T17:59:53.299Z,7.60
2022-10-21T18:02:28.758Z,7.60
2022-10-21T18:05:00.881Z,7.60
2022-10-21T18:07:32.587Z,7.60
2022-10-21T18:10:05.138Z,7.60
2022-10-21T18:12:37.177Z,7.60
2022-10-21T18:15:11.654Z,7.60
2022-10-21T18:17:45.634Z,7.50
2022-10-21T18:20:19.660Z,7.50
2022-10-21T18:22:56.519Z,7.40
2022-10-21T18:25:28.381Z,7.40
2022-10-21T18:28:00.167Z,7.30
2022-10-21T18:30:32.490Z,7.30
2022-10-21T18:33:04.312Z,7.20
2022-10-21T18:35:36.142Z,7.20
2022-10-21T18:38:07.948Z,7.20
2022-10-21T18:40:43.747Z,7.10
2022-10-21T18:43:23.147Z,7.00
2022-10-21T18:45:55.012Z,7.00
2022-10-21T18:48:26.930Z,7.00
2022-10-21T18:51:04.827Z,6.90
2022-10-21T18:53:40.220Z,6.90
2022-10-21T18:56:14.600Z,6.90
2022-10-21T18:58:48.900Z,6.90
2022-10-21T19:01:21.381Z,6.90
2022-10-21T19:03:54.803Z,6.90
2022-10-21T19:06:33.867Z,6.90
2022-10-21T19:09:08.495Z,6.90
2022-10-21T19:11:41.056Z,6.90
2022-10-21T19:14:14.350Z,6.90
2022-10-21T19:16:47.768Z,6.90
2022-10-21T19:19:19.523Z,6.90
2022-10-21T19:21:51.348Z,6.90
2022-10-21T19:24:23.096Z,7.00
2022-10-21T19:26:56.268Z,7.00
2022-10-21T19:29:28.037Z,7.00
2022-10-21T19:32:00.009Z,7.00
2022-10-21T19:34:31.853Z,7.00
2022-10-21T19:37:03.660Z,7.00
2022-10-21T19:39:35.953Z,7.00
2022-10-21T19:42:08.046Z,7.10
2022-10-21T19:44:39.964Z,7.10
2022-10-21T19:47:16.619Z,7.10
2022-10-21T19:49:48.691Z,7.10
2022-10-21T19:52:20.456Z,7.10
2022-10-21T19:54:52.487Z,7.20
2022-10-21T19:57:24.236Z,7.20
2022-10-21T19:59:55.967Z,7.20
2022-10-21T20:02:27.818Z,7.20
2022-10-21T20:04:59.537Z,7.20
2022-10-21T20:07:34.683Z,7.20
2022-10-21T20:10:06.659Z,7.20
2022-10-21T20:12:38.660Z,7.20
2022-10-21T20:15:13.034Z,7.20
2022-10-21T20:17:44.867Z,7.20
2022-10-21T20:20:16.697Z,7.20
2022-10-21T20:22:48.447Z,7.30
2022-10-21T20:25:22.620Z,7.30
2022-10-21T20:27:54.380Z,7.30
2022-10-21T20:30:26.115Z,7.30
2022-10-21T20:32:57.852Z,7.30
2022-10-21T20:35:29.600Z,7.30
2022-10-21T20:38:01.330Z,7.30
2022-10-21T20:40:35.436Z,7.30
2022-10-21T20:43:09.742Z,7.40
2022-10-21T20:45:41.468Z,7.40
2022-10-21T20:48:15.618Z,7.40
2022-10-21T20:50:47.330Z,7.40
2022-10-21T20:53:19.079Z,7.40
2022-10-21T20:55:54.765Z,7.40
2022-10-21T20:58:27.011Z,7.40
2022-10-21T21:00:58.795Z,7.40
2022-10-21T21:03:30.580Z,7.40
2022-10-21T21:06:04.501Z,7.40
2022-10-21T21:08:37.101Z,7.40
2022-10-21T21:11:09.771Z,7.40
2022-10-21T21:13:43.521Z,7.40
2022-10-21T21:16:17.482Z,7.40
2022-10-21T21:18:56.911Z,7.40
2022-10-21T21:21:29.136Z,7.30
2022-10-21T21:24:01.119Z,7.40
2022-10-21T21:26:34.493Z,7.30
2022-10-21T21:29:06.920Z,7.30
2022-10-21T21:31:39.688Z,7.30
2022-10-21T21:34:11.829Z,7.30
2022-10-21T21:36:43.606Z,7.30
2022-10-21T21:41:47.095Z,7.30
2022-10-21T21:44:18.869Z,7.30
2022-10-21T21:46:50.577Z,7.30
2022-10-21T21:49:24.642Z,7.40
2022-10-21T21:51:56.411Z,7.40
2022-10-21T21:54:28.166Z,7.30
2022-10-21T21:57:26.341Z,7.40
2022-10-21T21:59:51.654Z,7.40
2022-10-21T22:02:23.338Z,7.40
2022-10-21T22:04:55.109Z,7.40
2022-10-21T22:07:27.433Z,7.40
2022-10-21T22:09:59.199Z,7.40
2022-10-21T22:12:33.277Z,7.40
2022-10-21T22:15:05.322Z,7.40
2022-10-21T22:17:37.555Z,7.40
2022-10-21T22:20:09.879Z,7.40
2022-10-21T22:22:41.609Z,7.40
2022-10-21T22:25:16.789Z,7.40
2022-10-21T22:27:50.714Z,7.40
2022-10-21T22:30:24.650Z,7.40
2022-10-21T22:32:56.360Z,7.40
2022-10-21T22:35:30.494Z,7.40
2022-10-21T22:38:02.196Z,7.40
2022-10-21T22:40:33.942Z,7.40
2022-10-21T22:43:05.651Z,7.40
2022-10-21T22:45:37.973Z,7.40
2022-10-21T22:48:09.668Z,7.40
2022-10-21T22:50:41.437Z,7.40
2022-10-21T22:53:13.226Z,7.40
2022-10-21T22:55:44.978Z,7.40
2022-10-21T22:58:17.485Z,7.40
2022-10-21T23:00:50.084Z,7.40
2022-10-21T23:03:21.801Z,7.40
2022-10-21T23:05:53.551Z,7.50
2022-10-21T23:08:27.992Z,7.50
2022-10-21T23:10:59.828Z,7.50
2022-10-21T23:13:31.616Z,7.50
2022-10-21T23:16:03.458Z,7.50
2022-10-21T23:18:37.601Z,7.50
2022-10-21T23:21:09.295Z,7.50
2022-10-21T23:23:41.032Z,7.50
2022-10-21T23:26:12.797Z,7.50
2022-10-21T23:28:46.863Z,7.50
2022-10-21T23:31:18.673Z,7.50
2022-10-21T23:33:50.364Z,7.50
2022-10-21T23:36:22.161Z,7.50
2022-10-21T23:38:54.595Z,7.50
2022-10-21T23:41:26.671Z,7.50
2022-10-21T23:43:58.456Z,7.50
2022-10-21T23:46:30.240Z,7.50
2022-10-21T23:49:01.999Z,7.50
2022-10-21T23:51:38.802Z,7.50
2022-10-21T23:54:10.511Z,7.50
2022-10-21T23:56:42.322Z,7.40
2022-10-21T23:59:16.447Z,7.40
